createdAt,value
2018-04-19T00:00:04.710Z,26.90
2018-04-19T00:02:32.252Z,20.42
2018-04-19T00:04:59.804Z,19.67
2018-04-19T00:07:27.377Z,20.30
2018-04-19T00:09:54.937Z,23.02
2018-04-19T00:12:22.504Z,20.75
2018-04-19T00:14:50.073Z,18.60
2018-04-19T00:17:17.662Z,24.25
2018-04-19T00:19:45.242Z,22.62
2018-04-19T00:22:12.903Z,24.20
2018-04-19T00:24:40.477Z,23.98
2018-04-19T00:27:08.072Z,20.83
2018-04-19T00:29:35.624Z,21.37
2018-04-19T00:32:03.192Z,18.95
2018-04-19T00:34:30.781Z,21.42
2018-04-19T00:36:58.346Z,21.30
2018-04-19T00:39:25.917Z,23.60
2018-04-19T00:41:53.512Z,20.62
2018-04-19T00:44:21.128Z,22.25
2018-04-19T00:46:48.742Z,23.02
2018-04-19T00:49:16.333Z,22.17
2018-04-19T00:51:44.667Z,23.60
2018-04-19T00:54:12.246Z,22.02
2018-04-19T00:56:39.801Z,29.23
2018-04-19T00:59:07.373Z,23.45
2018-04-19T01:01:34.925Z,22.83
2018-04-19T01:04:03.269Z,26.73
2018-04-19T01:06:30.821Z,23.33
2018-04-19T01:08:58.413Z,22.02
2018-04-19T01:11:25.981Z,26.48
2018-04-19T01:13:53.575Z,23.70
2018-04-19T01:16:21.146Z,23.38
2018-04-19T01:18:48.782Z,22.77
2018-04-19T01:21:16.350Z,22.37
2018-04-19T01:23:43.945Z,24.27
2018-04-19T01:26:11.525Z,25.92
2018-04-19T01:28:39.073Z,22.27
2018-04-19T01:31:06.650Z,27.13
2018-04-19T01:33:34.205Z,25.17
2018-04-19T01:36:13.741Z,21.62
2018-04-19T01:38:41.357Z,24.05
2018-04-19T01:41:08.908Z,22.20
2018-04-19T01:43:36.473Z,24.90
2018-04-19T01:46:04.047Z,27.30
2018-04-19T01:48:31.601Z,17.58
2018-04-19T01:50:59.177Z,22.02
2018-04-19T01:53:26.733Z,18.25
2018-04-19T01:55:55.125Z,16.08
2018-04-19T01:58:23.462Z,20.15
2018-04-19T02:00:51.497Z,22.48
2018-04-19T02:03:19.857Z,22.92
2018-04-19T02:05:47.463Z,22.35
2018-04-19T02:08:15.045Z,19.92
2018-04-19T02:10:42.638Z,24.58
2018-04-19T02:13:10.230Z,23.00
2018-04-19T02:15:37.793Z,37.88
2018-04-19T02:18:05.370Z,22.20
2018-04-19T02:20:32.930Z,19.65
2018-04-19T02:23:00.514Z,22.75
2018-04-19T02:25:28.066Z,20.05
2018-04-19T02:27:55.668Z,22.37
2018-04-19T02:30:23.239Z,22.00
2018-04-19T02:32:50.855Z,25.95
2018-04-19T02:35:19.269Z,24.95
2018-04-19T02:37:46.881Z,22.60
2018-04-19T02:40:14.502Z,21.23
2018-04-19T02:42:42.071Z,22.90
2018-04-19T02:45:10.428Z,21.87
2018-04-19T02:47:38.017Z,20.00
2018-04-19T02:50:06.379Z,18.60
2018-04-19T02:52:33.936Z,21.50
2018-04-19T02:55:01.509Z,19.75
2018-04-19T02:57:29.074Z,20.48
2018-04-19T02:59:56.654Z,17.58
2018-04-19T03:02:24.205Z,20.37
2018-04-19T03:04:51.817Z,27.10
2018-04-19T03:07:19.386Z,26.00
2018-04-19T03:09:47.734Z,23.40
2018-04-19T03:12:15.362Z,25.67
2018-04-19T03:14:43.748Z,24.52
2018-04-19T03:17:11.333Z,24.60
2018-04-19T03:19:38.889Z,21.80
2018-04-19T03:22:06.470Z,25.65
2018-04-19T03:24:34.035Z,24.05
2018-04-19T03:27:01.613Z,21.12
2018-04-19T03:29:29.166Z,23.15
2018-04-19T03:31:56.741Z,19.23
2018-04-19T03:34:24.300Z,27.58
2018-04-19T03:36:51.890Z,26.75
2018-04-19T03:39:19.535Z,25.15
2018-04-19T03:41:47.183Z,24.73
2018-04-19T03:44:14.891Z,24.52
2018-04-19T03:46:43.248Z,23.70
2018-04-19T03:49:10.824Z,25.45
2018-04-19T03:51:38.389Z,19.95
2018-04-19T03:54:06.734Z,22.25
2018-04-19T03:56:34.293Z,29.45
2018-04-19T03:59:02.034Z,18.20
2018-04-19T04:01:30.369Z,17.05
2018-04-19T04:03:57.946Z,21.10
2018-04-19T04:06:25.566Z,23.35
2018-04-19T04:08:53.970Z,24.17
2018-04-19T04:11:21.557Z,23.35
2018-04-19T04:13:49.200Z,24.15
2018-04-19T04:16:29.107Z,19.42
2018-04-19T04:19:08.538Z,21.65
2018-04-19T04:21:48.097Z,20.17
2018-04-19T04:24:15.929Z,21.65
2018-04-19T04:26:43.578Z,22.67
2018-04-19T04:29:11.145Z,23.20
2018-04-19T04:31:39.547Z,18.37
2018-04-19T04:34:07.121Z,15.27
2018-04-19T04:36:34.738Z,17.10
2018-04-19T04:39:02.305Z,19.85
2018-04-19T04:41:30.666Z,23.00
2018-04-19T04:43:58.258Z,23.08
2018-04-19T04:46:26.631Z,21.92
2018-04-19T04:48:54.213Z,22.05
2018-04-19T04:51:22.647Z,19.87
2018-04-19T04:53:50.348Z,23.00
2018-04-19T04:56:17.988Z,19.62
2018-04-19T04:58:45.617Z,19.40
2018-04-19T05:01:13.195Z,22.50
2018-04-19T05:03:41.593Z,23.02
2018-04-19T05:06:09.927Z,20.67
2018-04-19T05:08:37.507Z,21.12
2018-04-19T05:11:05.073Z,23.38
2018-04-19T05:13:32.648Z,23.02
2018-04-19T05:16:00.229Z,25.60
2018-04-19T05:18:27.786Z,25.30
2018-04-19T05:20:55.377Z,19.00
2018-04-19T05:23:23.022Z,22.27
2018-04-19T05:25:50.695Z,19.37
2018-04-19T05:28:18.285Z,25.20
2018-04-19T05:30:46.033Z,22.85
2018-04-19T05:33:14.101Z,26.92
2018-04-19T05:35:41.741Z,22.10
2018-04-19T05:38:09.293Z,17.40
2018-04-19T05:40:36.958Z,23.50
2018-04-19T05:43:04.513Z,23.98
2018-04-19T05:45:32.204Z,21.75
2018-04-19T05:47:59.830Z,20.95
2018-04-19T05:50:27.552Z,21.05
2018-04-19T05:52:55.255Z,23.25
2018-04-19T05:55:22.849Z,26.35
2018-04-19T05:57:50.564Z,23.42
2018-04-19T06:00:18.140Z,31.87
2018-04-19T06:02:45.943Z,27.20
2018-04-19T06:05:13.583Z,27.55
2018-04-19T06:07:41.197Z,31.45
2018-04-19T06:10:08.785Z,29.83
2018-04-19T06:12:36.454Z,30.48
2018-04-19T06:15:04.027Z,34.85
2018-04-19T06:17:31.697Z,34.80
2018-04-19T06:19:59.460Z,26.30
2018-04-19T06:22:27.058Z,28.70
2018-04-19T06:24:54.780Z,34.40
2018-04-19T06:27:22.406Z,28.00
2018-04-19T06:29:50.737Z,30.90
2018-04-19T06:32:18.313Z,36.60
2018-04-19T06:34:45.901Z,31.80
2018-04-19T06:37:13.461Z,28.20
2018-04-19T06:39:41.042Z,32.40
2018-04-19T06:42:08.616Z,31.62
2018-04-19T06:44:36.231Z,32.88
2018-04-19T06:47:03.838Z,32.95
2018-04-19T06:49:32.229Z,38.13
2018-04-19T06:51:59.817Z,33.67
2018-04-19T06:54:27.410Z,31.77
2018-04-19T06:56:55.027Z,37.55
2018-04-19T06:59:23.413Z,32.15
2018-04-19T07:01:50.986Z,36.47
2018-04-19T07:04:18.579Z,29.77
2018-04-19T07:06:46.910Z,32.95
2018-04-19T07:09:14.513Z,28.40
2018-04-19T07:11:42.829Z,29.08
2018-04-19T07:14:11.162Z,34.92
2018-04-19T07:16:38.749Z,41.50
2018-04-19T07:19:06.328Z,27.85
2018-04-19T07:21:33.962Z,32.88
2018-04-19T07:24:01.570Z,27.70
2018-04-19T07:26:29.218Z,34.40
2018-04-19T07:28:56.821Z,31.75
2018-04-19T07:31:24.427Z,31.80
2018-04-19T07:33:52.773Z,32.35
2018-04-19T07:36:20.369Z,32.83
2018-04-19T07:38:47.942Z,36.80
2018-04-19T07:41:15.537Z,33.95
2018-04-19T07:43:45.031Z,24.37
2018-04-19T07:46:12.625Z,33.42
2018-04-19T07:48:40.970Z,26.37
2018-04-19T07:51:08.585Z,31.20
2018-04-19T07:53:36.954Z,31.27
2018-04-19T07:56:04.545Z,38.00
2018-04-19T07:58:32.253Z,30.75
2018-04-19T08:00:59.872Z,37.60
2018-04-19T08:03:27.461Z,28.70
2018-04-19T08:05:55.802Z,33.47
2018-04-19T08:08:23.401Z,41.75
2018-04-19T08:10:51.795Z,33.55
2018-04-19T08:13:19.501Z,34.05
2018-04-19T08:15:47.841Z,36.20
2018-04-19T08:18:15.418Z,43.97
2018-04-19T08:20:42.990Z,34.53
2018-04-19T08:23:10.578Z,34.47
2018-04-19T08:25:38.905Z,27.83
2018-04-19T08:28:07.269Z,41.50
2018-04-19T08:30:34.885Z,33.63
2018-04-19T08:33:02.556Z,29.73
2018-04-19T08:35:30.211Z,29.10
2018-04-19T08:37:58.583Z,31.73
2018-04-19T08:40:26.186Z,23.93
2018-04-19T08:42:53.804Z,33.27
2018-04-19T08:45:21.365Z,35.17
2018-04-19T08:47:48.927Z,35.10
2018-04-19T08:50:16.522Z,24.00
2018-04-19T08:52:44.086Z,26.57
2018-04-19T08:55:11.666Z,27.43
2018-04-19T08:57:39.254Z,24.63
2018-04-19T09:00:06.877Z,25.73
2018-04-19T09:02:34.500Z,29.13
2018-04-19T09:05:02.141Z,37.67
2018-04-19T09:07:29.720Z,26.10
2018-04-19T09:09:57.308Z,30.37
2018-04-19T09:12:24.878Z,28.70
2018-04-19T09:14:53.341Z,22.53
2018-04-19T09:17:20.927Z,21.93
2018-04-19T09:19:48.596Z,26.10
2018-04-19T09:22:16.222Z,32.20
2018-04-19T09:24:44.564Z,25.20
2018-04-19T09:27:12.162Z,20.73
2018-04-19T09:29:41.079Z,21.77
2018-04-19T09:32:08.650Z,19.00
2018-04-19T09:34:36.228Z,20.30
2018-04-19T09:37:03.818Z,22.87
2018-04-19T09:39:32.161Z,22.50
2018-04-19T09:42:00.530Z,27.70
2018-04-19T09:44:28.098Z,25.30
2018-04-19T09:46:55.686Z,27.07
2018-04-19T09:49:23.252Z,21.93
2018-04-19T09:51:50.862Z,20.53
2018-04-19T09:54:18.504Z,19.70
2018-04-19T09:56:46.162Z,27.47
2018-04-19T09:59:13.773Z,22.20
2018-04-19T10:01:46.988Z,24.80
2018-04-19T10:04:14.618Z,20.20
2018-04-19T10:06:42.205Z,19.70
2018-04-19T10:09:09.791Z,17.73
2018-04-19T10:11:37.352Z,18.47
2018-04-19T10:14:04.934Z,18.93
2018-04-19T10:16:32.506Z,18.17
2018-04-19T10:19:00.102Z,18.77
2018-04-19T10:21:27.845Z,16.70
2018-04-19T10:23:55.426Z,13.50
2018-04-19T10:26:23.019Z,14.83
2018-04-19T10:28:50.614Z,16.33
2018-04-19T10:31:18.945Z,18.50
2018-04-19T10:33:46.660Z,16.03
2018-04-19T10:36:14.198Z,16.53
2018-04-19T10:38:41.781Z,17.77
2018-04-19T10:41:09.347Z,14.20
2018-04-19T10:43:36.941Z,16.60
2018-04-19T10:46:05.271Z,12.10
2018-04-19T10:48:33.610Z,18.50
2018-04-19T10:51:01.197Z,20.80
2018-04-19T10:53:28.776Z,16.23
2018-04-19T10:55:56.436Z,18.37
2018-04-19T10:58:24.687Z,15.70
2018-04-19T11:00:52.285Z,14.37
2018-04-19T11:03:21.393Z,13.40
2018-04-19T11:05:49.749Z,15.70
2018-04-19T11:08:17.370Z,12.70
2018-04-19T11:10:45.128Z,12.83
2018-04-19T11:13:12.701Z,8.37
2018-04-19T11:15:40.289Z,13.53
2018-04-19T11:18:07.849Z,10.30
2018-04-19T11:20:35.426Z,13.80
2018-04-19T11:23:02.977Z,11.73
2018-04-19T11:25:31.489Z,12.03
2018-04-19T11:27:59.044Z,10.53
2018-04-19T11:30:26.622Z,10.43
2018-04-19T11:32:54.178Z,14.90
2018-04-19T11:35:21.770Z,11.90
2018-04-19T11:37:49.404Z,9.77
2018-04-19T11:40:17.782Z,6.93
2018-04-19T11:42:46.427Z,10.30
2018-04-19T11:45:14.087Z,13.33
2018-04-19T11:47:41.697Z,10.40
2018-04-19T11:50:10.055Z,7.77
2018-04-19T11:52:37.629Z,8.67
2018-04-19T11:55:05.194Z,7.60
2018-04-19T11:57:32.769Z,9.70
2018-04-19T12:00:00.330Z,10.53
2018-04-19T12:02:28.686Z,8.83
2018-04-19T12:04:56.254Z,9.70
2018-04-19T12:07:23.869Z,14.23
2018-04-19T12:09:51.447Z,11.47
2018-04-19T12:12:19.144Z,14.20
2018-04-19T12:14:46.746Z,11.57
2018-04-19T12:17:14.347Z,13.60
2018-04-19T12:19:41.954Z,10.07
2018-04-19T12:22:09.511Z,7.87
2018-04-19T12:24:37.106Z,12.90
2018-04-19T12:27:04.661Z,22.03
2018-04-19T12:29:32.238Z,18.57
2018-04-19T12:31:59.797Z,14.67
2018-04-19T12:34:27.378Z,18.17
2018-04-19T12:36:54.933Z,8.33
2018-04-19T12:39:22.518Z,10.70
2018-04-19T12:41:50.105Z,12.60
2018-04-19T12:44:17.738Z,7.13
2018-04-19T12:46:46.081Z,9.40
2018-04-19T12:49:14.265Z,14.47
2018-04-19T12:51:41.865Z,16.90
2018-04-19T12:54:09.430Z,17.20
2018-04-19T12:56:37.774Z,12.17
2018-04-19T12:59:06.212Z,12.70
2018-04-19T13:01:33.806Z,13.77
2018-04-19T13:04:01.372Z,13.70
2018-04-19T13:06:28.959Z,13.80
2018-04-19T13:08:57.290Z,14.10
2018-04-19T13:11:28.637Z,10.13
2018-04-19T13:13:56.190Z,15.60
2018-04-19T13:16:24.542Z,18.57
2018-04-19T13:18:52.105Z,12.00
2018-04-19T13:21:19.716Z,13.23
2018-04-19T13:23:49.121Z,10.50
2018-04-19T13:26:17.506Z,12.63
2018-04-19T13:28:46.138Z,16.50
2018-04-19T13:31:15.058Z,15.23
2018-04-19T13:33:42.645Z,11.43
2018-04-19T13:36:10.260Z,15.90
2018-04-19T13:38:37.829Z,19.80
2018-04-19T13:41:05.391Z,16.80
2018-04-19T13:43:32.974Z,18.93
2018-04-19T13:46:00.529Z,20.30
2018-04-19T13:48:28.109Z,18.00
2018-04-19T13:50:55.709Z,23.03
2018-04-19T13:53:24.074Z,14.33
2018-04-19T13:55:51.677Z,22.80
2018-04-19T13:58:20.053Z,18.97
2018-04-19T14:00:48.434Z,24.83
2018-04-19T14:03:16.308Z,16.53
2018-04-19T14:05:43.992Z,17.63
2018-04-19T14:08:11.629Z,18.80
2018-04-19T14:10:42.987Z,22.87
2018-04-19T14:13:11.407Z,24.57
2018-04-19T14:15:39.318Z,24.67
2018-04-19T14:18:07.665Z,21.00
2018-04-19T14:20:35.230Z,25.40
2018-04-19T14:23:02.790Z,26.80
2018-04-19T14:25:30.378Z,34.40
2018-04-19T14:27:57.933Z,23.83
2018-04-19T14:30:25.514Z,24.77
2018-04-19T14:32:53.195Z,33.10
2018-04-19T14:35:20.799Z,22.23
2018-04-19T14:37:48.397Z,17.80
2018-04-19T14:40:16.038Z,31.53
2018-04-19T14:42:43.720Z,23.30
2018-04-19T14:45:12.161Z,30.60
2018-04-19T14:47:39.741Z,19.77
2018-04-19T14:50:07.326Z,21.70
2018-04-19T14:52:34.892Z,16.50
2018-04-19T14:55:02.473Z,25.03
2018-04-19T14:57:30.034Z,18.33
2018-04-19T14:59:57.608Z,18.53
2018-04-19T15:02:25.204Z,18.10
2018-04-19T15:04:52.841Z,17.10
2018-04-19T15:07:20.420Z,20.73
2018-04-19T15:09:48.080Z,16.97
2018-04-19T15:12:15.833Z,20.13
2018-04-19T15:14:43.472Z,15.73
2018-04-19T15:17:11.903Z,15.90
2018-04-19T15:19:39.519Z,24.07
2018-04-19T15:22:07.139Z,20.80
2018-04-19T15:24:35.481Z,18.20
2018-04-19T15:27:03.061Z,15.63
2018-04-19T15:29:30.630Z,18.60
2018-04-19T15:31:58.245Z,20.03
2018-04-19T15:34:25.863Z,19.33
2018-04-19T15:36:53.454Z,18.73
2018-04-19T15:39:21.126Z,19.83
2018-04-19T15:41:48.977Z,21.10
2018-04-19T15:44:16.655Z,25.10
2018-04-19T15:46:44.424Z,13.17
2018-04-19T15:49:12.064Z,19.83
2018-04-19T15:51:40.152Z,17.23
2018-04-19T15:54:08.514Z,19.57
2018-04-19T15:56:36.088Z,23.23
2018-04-19T15:59:03.734Z,17.40
2018-04-19T16:01:32.939Z,21.60
2018-04-19T16:04:00.530Z,19.47
2018-04-19T16:06:28.087Z,21.90
2018-04-19T16:08:55.706Z,17.63
2018-04-19T16:11:24.805Z,26.67
2018-04-19T16:13:52.479Z,19.00
2018-04-19T16:16:20.117Z,23.03
2018-04-19T16:18:47.791Z,22.57
2018-04-19T16:21:15.486Z,19.23
2018-04-19T16:23:43.128Z,23.27
2018-04-19T16:26:10.706Z,18.50
2018-04-19T16:28:38.315Z,24.60
2018-04-19T16:31:05.886Z,22.50
2018-04-19T16:33:33.496Z,26.87
2018-04-19T16:36:01.076Z,22.50
2018-04-19T16:38:29.401Z,19.30
2018-04-19T16:40:56.982Z,28.33
2018-04-19T16:43:24.561Z,29.40
2018-04-19T16:45:52.218Z,27.30
2018-04-19T16:48:19.812Z,24.20
2018-04-19T16:50:49.565Z,27.30
2018-04-19T16:53:18.061Z,27.70
2018-04-19T16:55:45.829Z,25.03
2018-04-19T16:58:14.298Z,24.27
2018-04-19T17:00:41.947Z,26.57
2018-04-19T17:03:09.546Z,26.40
2018-04-19T17:05:37.975Z,26.37
2018-04-19T17:08:05.552Z,29.93
2018-04-19T17:10:33.905Z,28.93
2018-04-19T17:13:01.475Z,31.70
2018-04-19T17:15:29.071Z,27.80
2018-04-19T17:17:56.662Z,29.90
2018-04-19T17:20:25.024Z,29.47
2018-04-19T17:22:52.609Z,28.67
2018-04-19T17:25:20.217Z,30.77
2018-04-19T17:27:47.860Z,33.23
2018-04-19T17:30:16.304Z,35.30
2018-04-19T17:32:45.280Z,32.77
2018-04-19T17:35:12.877Z,29.73
2018-04-19T17:37:40.485Z,29.70
2018-04-19T17:40:08.052Z,36.47
2018-04-19T17:42:35.637Z,31.70
2018-04-19T17:45:03.201Z,33.83
2018-04-19T17:47:30.780Z,33.87
2018-04-19T17:49:58.341Z,35.13
2018-04-19T17:52:25.962Z,35.70
2018-04-19T17:54:53.559Z,34.63
2018-04-19T17:57:21.249Z,31.03
2018-04-19T17:59:48.827Z,32.63
2018-04-19T18:02:16.590Z,34.77
2018-04-19T18:04:47.525Z,39.50
2018-04-19T18:07:15.213Z,49.07
2018-04-19T18:09:42.801Z,42.13
2018-04-19T18:12:10.371Z,37.80
2018-04-19T18:14:37.950Z,34.40
2018-04-19T18:17:05.509Z,47.13
2018-04-19T18:19:33.093Z,33.00
2018-04-19T18:22:00.661Z,45.50
2018-04-19T18:24:28.251Z,49.10
2018-04-19T18:26:55.845Z,47.53
2018-04-19T18:29:24.240Z,43.10
2018-04-19T18:31:52.609Z,44.60
2018-04-19T18:34:20.399Z,49.00
2018-04-19T18:36:48.143Z,45.43
2018-04-19T18:39:15.848Z,49.50
2018-04-19T18:41:43.447Z,41.60
2018-04-19T18:44:11.344Z,42.37
2018-04-19T18:46:38.913Z,43.85
2018-04-19T18:49:06.501Z,42.43
2018-04-19T18:51:34.071Z,43.17
2018-04-19T18:54:01.665Z,40.70
2018-04-19T18:56:29.235Z,39.50
2018-04-19T18:58:56.817Z,41.35
2018-04-19T19:01:24.473Z,45.20
2018-04-19T19:03:52.106Z,39.47
2018-04-19T19:06:19.715Z,42.28
2018-04-19T19:08:47.617Z,40.57
2018-04-19T19:11:15.303Z,42.33
2018-04-19T19:13:42.960Z,39.30
2018-04-19T19:16:11.348Z,42.28
2018-04-19T19:18:51.021Z,36.15
2018-04-19T19:21:19.175Z,36.78
2018-04-19T19:23:46.941Z,42.47
2018-04-19T19:26:14.617Z,35.33
2018-04-19T19:28:42.262Z,37.15
2018-04-19T19:31:09.845Z,33.58
2018-04-19T19:33:37.461Z,43.40
2018-04-19T19:36:05.061Z,41.28
2018-04-19T19:38:32.625Z,34.92
2018-04-19T19:41:00.219Z,33.05
2018-04-19T19:43:28.557Z,33.70
2018-04-19T19:45:56.173Z,35.45
2018-04-19T19:48:23.747Z,33.40
2018-04-19T19:50:52.811Z,32.42
2018-04-19T19:53:21.408Z,37.85
2018-04-19T19:55:49.110Z,31.55
2018-04-19T19:58:16.740Z,29.45
2018-04-19T20:00:44.420Z,33.97
2018-04-19T20:03:13.257Z,30.58
2018-04-19T20:05:40.894Z,37.55
2018-04-19T20:08:08.502Z,28.73
2018-04-19T20:10:36.175Z,33.65
2018-04-19T20:13:03.943Z,27.75
2018-04-19T20:15:31.632Z,39.67
2018-04-19T20:17:59.293Z,33.97
2018-04-19T20:20:26.871Z,35.55
2018-04-19T20:22:54.542Z,33.03
2018-04-19T20:25:22.104Z,33.40
2018-04-19T20:27:49.700Z,35.17
2018-04-19T20:30:17.274Z,36.25
2018-04-19T20:32:45.005Z,34.28
2018-04-19T20:35:12.622Z,39.70
2018-04-19T20:37:40.996Z,36.60
2018-04-19T20:40:08.587Z,35.45
2018-04-19T20:42:37.062Z,36.15
2018-04-19T20:45:04.640Z,39.28
2018-04-19T20:47:32.210Z,31.48
2018-04-19T20:49:59.795Z,37.22
2018-04-19T20:52:27.373Z,31.37
2018-04-19T20:54:54.953Z,30.67
2018-04-19T20:57:23.287Z,29.00
2018-04-19T20:59:50.878Z,32.88
2018-04-19T21:02:18.485Z,33.45
2018-04-19T21:04:46.221Z,28.35
2018-04-19T21:07:13.824Z,34.35
2018-04-19T21:09:41.406Z,26.67
2018-04-19T21:12:08.961Z,32.78
2018-04-19T21:14:36.548Z,29.17
2018-04-19T21:17:04.809Z,42.45
2018-04-19T21:19:32.418Z,31.02
2018-04-19T21:22:00.075Z,29.85
2018-04-19T21:24:27.742Z,26.77
2018-04-19T21:26:55.330Z,30.40
2018-04-19T21:29:22.909Z,30.52
2018-04-19T21:31:51.299Z,25.00
2018-04-19T21:34:18.886Z,24.27
2018-04-19T21:36:47.292Z,27.08
2018-04-19T21:39:14.861Z,28.35
2018-04-19T21:41:42.484Z,26.30
2018-04-19T21:44:10.052Z,24.95
2018-04-19T21:46:37.639Z,24.40
2018-04-19T21:49:05.717Z,30.73
2018-04-19T21:51:34.037Z,28.30
2018-04-19T21:54:02.366Z,19.58
2018-04-19T21:56:29.946Z,26.98
2018-04-19T21:58:57.510Z,22.05
2018-04-19T22:01:25.103Z,25.23
2018-04-19T22:03:53.554Z,21.40
2018-04-19T22:06:21.121Z,28.05
2018-04-19T22:08:49.470Z,23.10
2018-04-19T22:11:17.145Z,21.10
2018-04-19T22:13:44.813Z,22.35
2018-04-19T22:16:12.387Z,28.15
2018-04-19T22:18:39.965Z,22.25
2018-04-19T22:21:08.354Z,22.08
2018-04-19T22:23:35.958Z,23.87
2018-04-19T22:26:04.312Z,20.77
2018-04-19T22:28:31.938Z,23.58
2018-04-19T22:30:59.570Z,19.75
2018-04-19T22:33:28.141Z,23.33
2018-04-19T22:35:55.720Z,23.20
2018-04-19T22:38:24.225Z,21.48
2018-04-19T22:40:52.235Z,23.20
2018-04-19T22:43:20.594Z,22.52
2018-04-19T22:45:48.173Z,24.63
2018-04-19T22:48:15.769Z,23.85
2018-04-19T22:50:43.329Z,23.60
2018-04-19T22:53:10.990Z,20.62
2018-04-19T22:55:38.612Z,26.23
2018-04-19T22:58:06.229Z,23.83
2018-04-19T23:00:33.838Z,19.55
2018-04-19T23:03:02.277Z,23.60
2018-04-19T23:05:30.160Z,21.77
2018-04-19T23:07:57.815Z,23.30
2018-04-19T23:10:25.463Z,21.77
2018-04-19T23:12:53.038Z,23.42
2018-04-19T23:15:21.497Z,26.60
2018-04-19T23:17:49.056Z,18.10
2018-04-19T23:20:16.633Z,22.27
2018-04-19T23:22:44.208Z,20.42
2018-04-19T23:25:11.876Z,21.85
2018-04-19T23:27:39.449Z,19.42
2018-04-19T23:30:07.037Z,22.52
2018-04-19T23:32:34.650Z,23.15
2018-04-19T23:35:02.988Z,20.83
2018-04-19T23:37:30.648Z,18.75
2018-04-19T23:39:58.305Z,17.85
2018-04-19T23:42:25.934Z,22.45
2018-04-19T23:44:54.309Z,22.05
2018-04-19T23:47:21.886Z,20.77
2018-04-19T23:49:49.551Z,23.05
2018-04-19T23:52:17.125Z,18.33
2018-04-19T23:54:44.685Z,16.80
2018-04-19T23:57:12.275Z,19.35
2018-04-19T23:59:39.844Z,17.83
